Time;durP1;ratioP1;P1;durP2;ratioP2;P2;SDS_P1;SDS_P2;PMS_P1;PMS_P2;Temp;Humidity;BMP_temperature;BMP_pressure;BME280_temperature;BME280_humidity;BME280_pressure;Samples;Min_cycle;Max_cycle;Signal;HPM_P1;HPM_P2
2022/08/10 00:00:19;;;;;;;2.32;2.10;;;;;;;17.40;83.15;102396.72;172017;28;1033;-64
2022/08/10 00:00:22;;;;;;;3.69;2.20;;;;;;;17.45;82.88;102393.88;172643;28;1158;-64
2022/08/10 00:00:27;;;;;;;3.50;2.10;;;;;;;17.45;82.62;102399.97;172704;28;898;-64
2022/08/10 00:00:33;;;;;;;2.90;2.08;;;;;;;17.46;82.67;102395.56;172637;28;1080;-64
2022/08/10 00:00:38;;;;;;;2.27;2.03;;;;;;;17.46;82.85;102399.06;172626;28;989;-64
2022/08/10 00:00:43;;;;;;;2.45;2.00;;;;;;;17.46;82.88;102398.22;172676;28;880;-64
2022/08/10 00:00:49;;;;;;;2.20;1.90;;;;;;;17.44;82.75;102400.91;172647;28;1073;-64
2022/08/10 00:00:54;;;;;;;2.60;1.83;;;;;;;17.43;82.93;102401.84;172674;28;827;-64
2022/08/10 00:01:00;;;;;;;3.13;1.98;;;;;;;17.44;82.76;102398.28;172688;28;1042;-64
2022/08/10 00:01:05;;;;;;;3.13;2.00;;;;;;;17.45;82.73;102399.97;172633;28;1922;-64
2022/08/10 00:01:10;;;;;;;4.43;2.10;;;;;;;17.46;82.63;102400.84;172681;28;859;-64
2022/08/10 00:01:16;;;;;;;4.10;2.10;;;;;;;17.44;83.13;102403.56;172618;28;902;-64
2022/08/10 00:01:21;;;;;;;3.97;2.20;;;;;;;17.43;82.88;102396.56;172685;28;903;-64
2022/08/10 00:01:27;;;;;;;3.75;2.17;;;;;;;17.44;83.08;102398.28;172686;28;1037;-63
2022/08/10 00:01:33;;;;;;;3.42;2.10;;;;;;;17.44;83.01;102395.63;172679;28;978;-64
2022/08/10 00:01:38;;;;;;;2.53;2.10;;;;;;;17.45;82.98;102399.16;172707;28;851;-64
2022/08/10 00:01:44;;;;;;;2.45;2.10;;;;;;;17.43;82.83;102399.22;172715;28;843;-64
2022/08/10 00:01:53;;;;;;;2.60;2.10;;;;;;;17.43;82.98;102399.22;172732;28;894;-64
2022/08/10 00:01:58;;;;;;;2.69;2.13;;;;;;;17.40;83.06;102399.34;172718;28;1073;-64
2022/08/10 00:02:03;;;;;;;3.10;2.20;;;;;;;17.42;82.96;102399.28;172714;28;883;-64
2022/08/10 00:02:09;;;;;;;3.07;2.20;;;;;;;17.42;83.22;102399.28;172723;28;1076;-64
2022/08/10 00:02:14;;;;;;;3.23;2.20;;;;;;;17.42;82.97;102400.16;172629;28;1096;-64
2022/08/10 00:02:19;;;;;;;3.13;2.20;;;;;;;17.43;82.91;102399.22;172727;28;855;-64
2022/08/10 00:02:25;;;;;;;3.07;2.23;;;;;;;17.42;82.73;102402.78;172738;28;1076;-64
2022/08/10 00:02:30;;;;;;;2.93;2.20;;;;;;;17.42;83.00;102402.78;172771;28;1014;-64
2022/08/10 00:02:36;;;;;;;2.63;2.22;;;;;;;17.40;83.00;102396.72;172731;28;1018;-64
2022/08/10 00:02:41;;;;;;;2.40;2.20;;;;;;;17.40;83.29;102399.34;172662;28;903;-64
2022/08/10 00:02:56;;;;;;;2.40;2.20;;;;;;;17.37;83.55;102402.13;172647;28;835;-64
2022/08/10 00:03:01;;;;;;;2.40;2.20;;;;;;;17.29;84.26;102404.28;172714;28;1215;-64
2022/08/10 00:03:08;;;;;;;2.40;2.20;;;;;;;17.29;83.86;102404.28;172715;28;899;-64
2022/08/10 00:03:14;;;;;;;2.40;2.20;;;;;;;17.31;83.75;102403.28;172590;28;989;-64
2022/08/10 00:03:19;;;;;;;2.67;2.20;;;;;;;17.33;83.63;102403.19;172715;28;927;-64
2022/08/10 00:03:24;;;;;;;2.90;2.30;;;;;;;17.33;83.45;102406.69;172727;28;879;-64
2022/08/10 00:03:30;;;;;;;3.00;2.30;;;;;;;17.33;83.32;102403.19;172800;28;891;-64
2022/08/10 00:03:35;;;;;;;2.93;2.30;;;;;;;17.34;83.29;102403.13;173258;28;1519;-64
2022/08/10 00:03:40;;;;;;;2.58;2.30;;;;;;;17.33;83.72;102400.56;173327;28;1003;-64
2022/08/10 00:03:46;;;;;;;2.60;2.37;;;;;;;17.33;83.44;102405.84;173344;28;926;-64
2022/08/10 00:03:51;;;;;;;2.60;2.40;;;;;;;17.33;83.40;102400.56;173325;28;851;-64
2022/08/10 00:03:56;;;;;;;2.58;2.33;;;;;;;17.34;83.63;102402.25;173297;28;1029;-63
2022/08/10 00:04:02;;;;;;;3.87;2.47;;;;;;;17.34;83.62;102397.00;173345;28;915;-64
2022/08/10 00:04:07;;;;;;;3.85;2.42;;;;;;;17.33;83.17;102401.44;173322;28;1041;-64
2022/08/10 00:04:13;;;;;;;4.87;2.50;;;;;;;17.34;83.44;102402.25;172473;28;958;-64
2022/08/10 00:04:23;;;;;;;5.13;2.43;;;;;;;17.33;83.04;102405.84;172649;28;934;-64
2022/08/10 00:04:28;;;;;;;4.20;2.37;;;;;;;17.34;83.08;102407.53;172674;28;943;-64
2022/08/10 00:04:34;;;;;;;3.13;2.30;;;;;;;17.33;83.67;102405.84;172638;28;1026;-64
2022/08/10 00:04:39;;;;;;;3.03;2.20;;;;;;;17.29;84.03;102405.13;172654;28;976;-64
2022/08/10 00:04:44;;;;;;;2.40;2.20;;;;;;;17.27;84.23;102406.13;172645;28;951;-64
2022/08/10 00:04:50;;;;;;;2.47;2.30;;;;;;;17.26;84.14;102400.00;172638;28;1022;-64
2022/08/10 00:04:55;;;;;;;2.50;2.30;;;;;;;17.28;84.15;102407.84;171884;28;732;-64
2022/08/10 00:05:00;;;;;;;2.50;2.30;;;;;;;17.23;84.39;102402.78;172033;28;844;-64
2022/08/10 00:05:06;;;;;;;2.50;2.30;;;;;;;17.19;84.38;102404.72;171979;28;887;-64
2022/08/10 00:05:11;;;;;;;2.53;2.33;;;;;;;17.20;84.19;102406.41;171918;28;923;-64
2022/08/10 00:05:18;;;;;;;2.47;2.23;;;;;;;17.23;84.08;102405.41;171877;28;784;-64
2022/08/10 00:05:26;;;;;;;2.96;2.20;;;;;;;17.27;83.57;102411.41;171859;28;1159;-64
2022/08/10 00:05:31;;;;;;;3.16;2.18;;;;;;;17.29;83.69;102406.91;171870;28;1142;-64
2022/08/10 00:05:36;;;;;;;3.15;2.17;;;;;;;17.30;83.53;102405.97;171895;28;1173;-64
2022/08/10 00:05:42;;;;;;;2.83;2.17;;;;;;;17.32;83.63;102404.13;171975;28;871;-64
2022/08/10 00:05:48;;;;;;;3.03;2.20;;;;;;;17.32;83.43;102409.41;171950;28;1093;-64
2022/08/10 00:05:55;;;;;;;3.10;2.20;;;;;;;17.33;83.18;102406.69;171961;28;1144;-64
2022/08/10 00:06:00;;;;;;;3.32;2.24;;;;;;;17.32;83.51;102405.00;171896;28;1121;-64
2022/08/10 00:06:06;;;;;;;4.70;2.30;;;;;;;17.29;83.64;102399.88;171982;28;840;-64
2022/08/10 00:06:11;;;;;;;4.90;2.30;;;;;;;17.29;83.79;102401.63;171957;28;843;-64
2022/08/10 00:06:17;;;;;;;4.85;2.30;;;;;;;17.29;83.67;102401.63;171193;28;899;-64
2022/08/10 00:06:22;;;;;;;4.32;2.25;;;;;;;17.29;83.60;102406.91;171291;28;1002;-64
2022/08/10 00:06:28;;;;;;;4.90;2.30;;;;;;;17.30;83.40;102411.25;171342;28;911;-64
2022/08/10 00:06:33;;;;;;;4.50;2.22;;;;;;;17.30;83.22;102408.63;171285;28;927;-64
2022/08/10 00:06:39;;;;;;;3.63;2.20;;;;;;;17.30;83.42;102408.63;171295;28;943;-64
2022/08/10 00:06:44;;;;;;;3.58;2.22;;;;;;;17.30;83.65;102406.84;171290;28;1085;-64
2022/08/10 00:06:52;;;;;;;3.70;2.30;;;;;;;17.33;83.45;102403.19;171312;28;1105;-64
2022/08/10 00:06:57;;;;;;;3.12;2.28;;;;;;;17.33;83.41;102403.19;171950;28;999;-64
2022/08/10 00:07:03;;;;;;;2.90;2.30;;;;;;;17.34;83.44;102411.03;172014;28;935;-64
2022/08/10 00:07:08;;;;;;;2.97;2.30;;;;;;;17.34;83.44;102402.25;171941;28;856;-64
2022/08/10 00:07:13;;;;;;;2.92;2.22;;;;;;;17.34;83.11;102405.78;171875;28;1117;-64
2022/08/10 00:07:19;;;;;;;2.43;2.10;;;;;;;17.34;83.26;102413.69;171966;28;927;-64
2022/08/10 00:07:25;;;;;;;2.30;2.10;;;;;;;17.34;83.13;102411.03;171740;28;895;-64
2022/08/10 00:07:30;;;;;;;3.80;2.13;;;;;;;17.35;83.20;102401.38;171994;28;986;-64
2022/08/10 00:07:35;;;;;;;3.38;2.17;;;;;;;17.35;83.51;102404.00;171156;28;1103;-64
2022/08/10 00:07:41;;;;;;;3.23;2.10;;;;;;;17.35;83.30;102401.38;171284;28;883;-63
2022/08/10 00:07:47;;;;;;;3.50;2.28;;;;;;;17.35;83.26;102409.28;171216;28;978;-64
2022/08/10 00:07:54;;;;;;;4.07;2.38;;;;;;;17.31;83.77;102402.44;171189;28;1595;-63
2022/08/10 00:07:59;;;;;;;2.80;2.23;;;;;;;17.29;83.73;102410.41;171363;28;864;-64
2022/08/10 00:08:04;;;;;;;2.83;2.20;;;;;;;17.29;83.51;102406.91;171295;28;975;-64
2022/08/10 00:08:10;;;;;;;3.37;2.30;;;;;;;17.30;83.42;102409.47;171302;28;947;-64
2022/08/10 00:08:15;;;;;;;3.43;2.27;;;;;;;17.31;83.31;102408.53;171508;28;896;-64
2022/08/10 00:08:25;;;;;;;3.03;2.13;;;;;;;17.32;83.17;102405.00;171970;28;982;-64
2022/08/10 00:08:31;;;;;;;3.26;2.14;;;;;;;17.31;83.57;102405.91;171981;28;1186;-64
2022/08/10 00:08:36;;;;;;;3.93;2.20;;;;;;;17.30;83.27;102406.84;171969;28;864;-64
2022/08/10 00:08:42;;;;;;;4.05;2.10;;;;;;;17.31;83.33;102410.34;171952;28;840;-64
2022/08/10 00:08:47;;;;;;;4.38;2.20;;;;;;;17.31;83.23;102402.44;171998;28;855;-64
2022/08/10 00:08:53;;;;;;;5.03;2.23;;;;;;;17.32;83.28;102404.13;171961;28;856;-63
2022/08/10 00:08:58;;;;;;;4.70;2.30;;;;;;;17.31;83.46;102405.06;171967;28;1033;-64
2022/08/10 00:09:04;;;;;;;7.82;2.35;;;;;;;17.30;83.68;102405.97;171991;28;860;-64
2022/08/10 00:09:09;;;;;;;7.50;2.30;;;;;;;17.25;84.59;102407.03;171988;28;943;-64
2022/08/10 00:09:14;;;;;;;7.50;2.30;;;;;;;17.21;84.34;102405.47;171862;28;1034;-63
2022/08/10 00:09:20;;;;;;;7.07;2.30;;;;;;;17.15;84.86;102403.13;171940;28;963;-64
2022/08/10 00:09:26;;;;;;;6.80;2.30;;;;;;;17.10;85.13;102405.97;172616;28;1061;-64
2022/08/10 00:09:31;;;;;;;4.43;2.30;;;;;;;17.08;84.85;102401.69;172701;28;852;-64
2022/08/10 00:09:36;;;;;;;2.67;2.30;;;;;;;17.11;84.54;102404.22;172574;28;977;-64
2022/08/10 00:09:42;;;;;;;3.50;2.40;;;;;;;17.13;84.52;102402.34;172598;28;840;-64
2022/08/10 00:09:47;;;;;;;3.75;2.40;;;;;;;17.16;84.31;102410.13;172657;28;1109;-64
2022/08/10 00:09:53;;;;;;;3.40;2.40;;;;;;;17.18;84.26;102397.69;173123;28;1030;-64
2022/08/10 00:09:58;;;;;;;4.18;2.40;;;;;;;17.19;83.90;102404.72;173340;28;913;-64
2022/08/10 00:10:05;;;;;;;4.43;2.40;;;;;;;17.21;83.93;102402.00;173325;28;997;-64
2022/08/10 00:10:13;;;;;;;4.00;2.37;;;;;;;17.22;84.01;102403.72;173338;28;1073;-64
2022/08/10 00:10:22;;;;;;;3.55;2.40;;;;;;;17.15;84.37;102400.50;172702;28;1131;-64
2022/08/10 00:10:28;;;;;;;3.84;2.47;;;;;;;17.13;84.45;102399.69;173231;28;1321;-64
2022/08/10 00:10:34;;;;;;;3.15;2.42;;;;;;;17.16;84.46;102403.97;173378;28;851;-65
2022/08/10 00:10:39;;;;;;;3.00;2.45;;;;;;;17.16;84.18;102399.56;173320;28;1061;-64
2022/08/10 00:10:44;;;;;;;3.40;2.40;;;;;;;17.18;84.06;102408.25;173304;28;971;-64
2022/08/10 00:10:55;;;;;;;4.00;2.40;;;;;;;17.20;83.80;102411.69;172513;28;1792;-64
2022/08/10 00:11:00;;;;;;;3.93;2.34;;;;;;;17.20;83.85;102411.69;172641;28;1243;-64
2022/08/10 00:11:06;;;;;;;4.00;2.40;;;;;;;17.21;83.68;102407.28;171917;28;1020;-64
2022/08/10 00:11:12;;;;;;;3.93;2.30;;;;;;;17.22;83.79;102404.56;171989;28;1148;-65
2022/08/10 00:11:18;;;;;;;2.58;2.28;;;;;;;17.21;84.09;102402.84;171987;28;1118;-64
2022/08/10 00:11:24;;;;;;;2.53;2.25;;;;;;;17.18;84.75;102408.25;171969;28;1096;-65
2022/08/10 00:11:29;;;;;;;2.50;2.20;;;;;;;17.13;84.77;102404.97;172020;28;1070;-64
2022/08/10 00:11:35;;;;;;;2.53;2.20;;;;;;;17.15;84.59;102403.13;171969;28;848;-65
2022/08/10 00:11:40;;;;;;;2.88;2.20;;;;;;;17.16;84.32;102393.41;171987;28;835;-65
2022/08/10 00:11:46;;;;;;;3.97;2.23;;;;;;;17.18;83.93;102402.97;171927;28;1018;-65
2022/08/10 00:11:51;;;;;;;4.25;2.33;;;;;;;17.19;84.18;102404.72;171960;28;1097;-64
2022/08/10 00:11:56;;;;;;;3.80;2.40;;;;;;;17.19;83.74;102409.97;171973;28;914;-64
2022/08/10 00:12:02;;;;;;;3.73;2.40;;;;;;;17.19;83.90;102404.72;171974;28;1097;-64
2022/08/10 00:12:08;;;;;;;3.53;2.40;;;;;;;17.20;83.94;102406.41;171985;28;1057;-64
2022/08/10 00:12:13;;;;;;;3.03;2.40;;;;;;;17.19;84.24;102403.84;171854;28;1010;-64
2022/08/10 00:12:19;;;;;;;2.97;2.40;;;;;;;17.15;84.76;102403.13;171915;28;1097;-65
2022/08/10 00:12:24;;;;;;;2.90;2.30;;;;;;;17.15;84.47;102397.88;171957;28;844;-64
2022/08/10 00:12:29;;;;;;;3.33;2.40;;;;;;;17.16;84.53;102399.56;172009;28;883;-65
2022/08/10 00:12:35;;;;;;;3.53;2.47;;;;;;;17.18;83.92;102402.97;171963;28;971;-65
2022/08/10 00:12:42;;;;;;;3.85;2.50;;;;;;;17.19;83.89;102398.56;171956;28;1037;-65
2022/08/10 00:12:48;;;;;;;4.08;2.48;;;;;;;17.20;83.82;102406.41;172170;28;993;-65
2022/08/10 00:12:53;;;;;;;4.78;2.50;;;;;;;17.20;83.93;102403.78;172540;28;1321;-64
2022/08/10 00:12:59;;;;;;;4.57;2.40;;;;;;;17.21;83.79;102402.84;172546;28;935;-64
2022/08/10 00:13:04;;;;;;;5.03;2.30;;;;;;;17.20;83.94;102406.41;173000;28;1093;-64
2022/08/10 00:13:10;;;;;;;4.43;2.20;;;;;;;17.21;83.79;102402.00;173306;28;784;-65
2022/08/10 00:13:15;;;;;;;3.85;2.20;;;;;;;17.19;84.00;102402.06;172434;28;891;-65
2022/08/10 00:13:23;;;;;;;3.47;2.10;;;;;;;17.20;83.98;102405.53;172629;28;863;-64
2022/08/10 00:13:29;;;;;;;2.87;2.08;;;;;;;17.22;83.70;102399.28;171894;28;1254;-64
2022/08/10 00:13:35;;;;;;;2.33;2.13;;;;;;;17.22;83.58;102401.06;171949;28;952;-65
2022/08/10 00:13:40;;;;;;;2.35;2.15;;;;;;;17.22;83.77;102403.72;171972;28;1054;-64
2022/08/10 00:13:46;;;;;;;2.40;2.20;;;;;;;17.21;84.17;102402.84;171962;28;1073;-65
2022/08/10 00:13:51;;;;;;;2.40;2.20;;;;;;;17.21;83.88;102402.84;171931;28;867;-64
2022/08/10 00:13:56;;;;;;;2.47;2.23;;;;;;;17.20;84.01;102398.50;171887;28;864;-64
2022/08/10 00:14:02;;;;;;;2.78;2.30;;;;;;;17.20;83.95;102403.78;171226;28;1564;-64
2022/08/10 00:14:07;;;;;;;3.80;2.30;;;;;;;17.21;83.66;102407.28;171238;28;1023;-64
2022/08/10 00:14:13;;;;;;;3.67;2.30;;;;;;;17.20;84.01;102401.13;171205;28;941;-65
2022/08/10 00:14:18;;;;;;;4.03;2.33;;;;;;;17.19;84.11;102403.84;171295;28;919;-64
2022/08/10 00:14:23;;;;;;;4.30;2.40;;;;;;;17.17;84.50;102406.53;171317;28;964;-64
2022/08/10 00:14:29;;;;;;;3.30;2.38;;;;;;;17.12;84.93;102403.28;171309;28;991;-64
2022/08/10 00:14:34;;;;;;;3.20;2.30;;;;;;;17.08;85.20;102404.34;171286;28;1089;-64
2022/08/10 00:14:40;;;;;;;2.53;2.33;;;;;;;17.05;85.17;102404.44;171274;28;899;-64
2022/08/10 00:14:46;;;;;;;2.50;2.30;;;;;;;17.06;85.20;102399.13;171280;28;1251;-64
2022/08/10 00:14:51;;;;;;;2.47;2.30;;;;;;;17.07;84.94;102403.47;171262;28;923;-64
2022/08/10 00:14:58;;;;;;;2.57;2.23;;;;;;;17.08;84.47;102404.34;170463;29;1622;-65
2022/08/10 00:15:05;;;;;;;3.00;2.30;;;;;;;17.09;84.67;102401.63;170669;29;896;-64
2022/08/10 00:15:15;;;;;;;3.55;2.35;;;;;;;17.12;84.61;102403.28;170640;29;864;-64
2022/08/10 00:15:23;;;;;;;3.66;2.46;;;;;;;17.15;84.50;102404.91;171286;28;1125;-64
2022/08/10 00:15:28;;;;;;;2.97;2.43;;;;;;;17.16;84.03;102402.19;171652;28;1284;-64
2022/08/10 00:15:33;;;;;;;2.70;2.40;;;;;;;17.17;84.16;102410.97;171882;28;713;-64
2022/08/10 00:15:39;;;;;;;2.77;2.30;;;;;;;17.17;83.97;102400.44;171969;28;1029;-64
2022/08/10 00:15:44;;;;;;;3.65;2.20;;;;;;;17.18;84.04;102402.97;171972;28;922;-64
2022/08/10 00:15:51;;;;;;;4.27;2.20;;;;;;;17.19;83.87;102409.97;171990;28;843;-65
2022/08/10 00:15:56;;;;;;;5.12;2.20;;;;;;;17.19;84.14;102402.06;171932;28;1001;-64
2022/08/10 00:16:04;;;;;;;4.77;2.20;;;;;;;17.20;83.93;102402.91;171978;28;1034;-64
2022/08/10 00:16:09;;;;;;;5.03;2.33;;;;;;;17.19;83.87;102404.72;172639;28;1133;-65
2022/08/10 00:16:15;;;;;;;4.43;2.40;;;;;;;17.19;84.04;102403.84;172547;28;769;-64
2022/08/10 00:16:20;;;;;;;4.13;2.43;;;;;;;17.18;84.36;102402.97;172662;28;843;-65
2022/08/10 00:16:26;;;;;;;3.90;2.40;;;;;;;17.19;83.88;102399.44;171909;28;935;-65
2022/08/10 00:16:31;;;;;;;5.50;2.40;;;;;;;17.18;83.75;102402.97;171998;28;923;-65
2022/08/10 00:16:36;;;;;;;5.27;2.30;;;;;;;17.20;84.09;102400.25;171894;28;1521;-64
2022/08/10 00:16:42;;;;;;;4.50;2.30;;;;;;;17.19;83.84;102402.06;171979;28;1022;-64
2022/08/10 00:16:48;;;;;;;4.47;2.37;;;;;;;17.20;84.00;102400.25;171870;28;1301;-64
2022/08/10 00:16:53;;;;;;;5.05;2.50;;;;;;;17.20;83.86;102405.53;171886;28;987;-64
2022/08/10 00:16:58;;;;;;;5.27;2.60;;;;;;;17.19;83.88;102399.44;171937;28;1038;-64
2022/08/10 00:17:04;;;;;;;4.47;2.50;;;;;;;17.17;84.14;102406.53;171983;28;1104;-64
2022/08/10 00:17:09;;;;;;;5.70;2.60;;;;;;;17.16;84.03;102396.94;171997;28;910;-65
2022/08/10 00:17:15;;;;;;;5.80;2.57;;;;;;;17.15;84.46;102408.41;171794;28;1006;-64
2022/08/10 00:17:20;;;;;;;5.43;2.45;;;;;;;17.15;83.99;102395.22;171957;28;1062;-64
2022/08/10 00:17:26;;;;;;;4.53;2.40;;;;;;;17.15;84.18;102400.50;171989;28;836;-64
2022/08/10 00:17:32;;;;;;;4.35;2.38;;;;;;;17.15;84.24;102405.78;171969;28;1082;-64
2022/08/10 00:17:37;;;;;;;3.28;2.35;;;;;;;17.16;84.11;102404.84;171976;28;848;-65
2022/08/10 00:17:43;;;;;;;3.45;2.30;;;;;;;17.15;84.41;102400.50;171938;28;1026;-64
2022/08/10 00:17:49;;;;;;;3.60;2.30;;;;;;;17.16;83.88;102399.56;171980;28;1045;-64
2022/08/10 00:17:54;;;;;;;3.78;2.35;;;;;;;17.17;83.86;102401.28;171969;28;931;-64
2022/08/10 00:18:00;;;;;;;3.70;2.40;;;;;;;17.17;84.12;102398.63;171877;28;860;-64
2022/08/10 00:18:05;;;;;;;3.47;2.40;;;;;;;17.16;83.84;102402.19;171940;28;978;-65
2022/08/10 00:18:10;;;;;;;2.77;2.33;;;;;;;17.15;84.33;102403.13;171973;28;852;-64
2022/08/10 00:18:16;;;;;;;2.50;2.28;;;;;;;17.14;84.67;102406.69;171121;28;943;-65
2022/08/10 00:18:23;;;;;;;2.60;2.23;;;;;;;17.13;84.83;102402.34;171325;28;895;-65
2022/08/10 00:18:29;;;;;;;3.20;2.20;;;;;;;17.14;84.50;102403.22;171316;28;995;-64
2022/08/10 00:18:34;;;;;;;3.33;2.20;;;;;;;17.14;84.34;102405.84;171319;28;884;-64
2022/08/10 00:18:40;;;;;;;3.40;2.25;;;;;;;17.15;84.35;102410.19;171299;28;844;-64
2022/08/10 00:18:45;;;;;;;4.10;2.30;;;;;;;17.15;84.06;102407.53;171313;28;1022;-64
2022/08/10 00:18:50;;;;;;;3.35;2.30;;;;;;;17.16;84.54;102402.19;171483;28;1042;-64
2022/08/10 00:18:56;;;;;;;3.60;2.30;;;;;;;17.16;84.48;102403.97;171900;28;1096;-64
2022/08/10 00:19:01;;;;;;;3.27;2.30;;;;;;;17.17;83.91;102401.28;172001;28;860;-64
2022/08/10 00:19:06;;;;;;;3.97;2.40;;;;;;;17.17;84.13;102400.44;171953;28;1034;-64
2022/08/10 00:19:12;;;;;;;4.07;2.43;;;;;;;17.17;84.33;102406.53;172110;28;1009;-64
2022/08/10 00:19:17;;;;;;;3.60;2.40;;;;;;;17.17;84.29;102395.16;171700;28;832;-64
2022/08/10 00:19:23;;;;;;;4.47;2.42;;;;;;;17.17;84.15;102396.00;170927;28;1014;-64
2022/08/10 00:19:28;;;;;;;4.20;2.40;;;;;;;17.17;84.08;102400.44;171065;28;954;-64
2022/08/10 00:19:33;;;;;;;4.30;2.40;;;;;;;17.17;84.02;102400.44;171972;28;852;-64
2022/08/10 00:19:39;;;;;;;3.63;2.30;;;;;;;17.17;84.00;102401.28;171975;28;1092;-64
2022/08/10 00:19:44;;;;;;;4.77;2.30;;;;;;;17.16;84.27;102404.84;171966;28;1030;-65
2022/08/10 00:19:49;;;;;;;4.33;2.40;;;;;;;17.18;84.10;102410.88;171987;28;899;-65
2022/08/10 00:19:55;;;;;;;3.90;2.40;;;;;;;17.18;84.31;102402.13;171976;28;848;-64
2022/08/10 00:20:01;;;;;;;4.60;2.50;;;;;;;17.18;83.84;102402.97;171259;28;1346;-64
2022/08/10 00:20:07;;;;;;;5.13;2.60;;;;;;;17.19;83.96;102403.84;171253;28;872;-65
2022/08/10 00:20:13;;;;;;;4.00;2.53;;;;;;;17.19;84.14;102407.34;171343;28;959;-65
2022/08/10 00:20:18;;;;;;;3.47;2.50;;;;;;;17.19;83.79;102399.44;171942;28;1085;-65
2022/08/10 00:20:24;;;;;;;3.80;2.42;;;;;;;17.20;84.18;102401.13;171952;28;990;-64
2022/08/10 00:20:29;;;;;;;4.73;2.40;;;;;;;17.20;83.85;102400.25;171873;28;914;-64
2022/08/10 00:20:35;;;;;;;3.97;2.45;;;;;;;17.19;83.70;102403.84;171892;28;1278;-65
2022/08/10 00:20:40;;;;;;;4.27;2.50;;;;;;;17.19;83.85;102404.72;171976;28;832;-64
2022/08/10 00:20:45;;;;;;;4.33;2.50;;;;;;;17.18;83.87;102402.97;171973;28;915;-64
2022/08/10 00:20:51;;;;;;;4.50;2.50;;;;;;;17.17;83.78;102401.28;171949;28;1026;-64
2022/08/10 00:20:57;;;;;;;5.43;2.50;;;;;;;17.17;83.65;102401.28;172000;28;951;-65
2022/08/10 00:21:05;;;;;;;4.70;2.40;;;;;;;17.17;83.96;102401.28;172019;28;939;-64
2022/08/10 00:21:11;;;;;;;4.52;2.30;;;;;;;17.17;83.76;102403.91;171963;28;974;-64
2022/08/10 00:21:16;;;;;;;4.90;2.38;;;;;;;17.17;84.01;102400.44;172200;28;907;-64
2022/08/10 00:21:21;;;;;;;4.60;2.40;;;;;;;17.15;84.21;102397.88;172653;28;843;-64
2022/08/10 00:21:27;;;;;;;3.42;2.45;;;;;;;17.15;83.94;102403.13;172622;28;688;-64
2022/08/10 00:21:32;;;;;;;3.33;2.50;;;;;;;17.14;84.48;102405.84;171878;28;1617;-64
2022/08/10 00:21:37;;;;;;;3.20;2.50;;;;;;;17.10;84.72;102398.06;171989;28;970;-65
2022/08/10 00:21:45;;;;;;;2.97;2.50;;;;;;;17.07;84.57;102406.09;171868;28;844;-65
2022/08/10 00:21:50;;;;;;;2.94;2.50;;;;;;;17.06;84.79;102400.91;171954;28;1204;-64
2022/08/10 00:21:55;;;;;;;2.83;2.50;;;;;;;17.06;84.51;102403.53;171971;28;1094;-64
2022/08/10 00:22:01;;;;;;;2.60;2.40;;;;;;;17.06;84.38;102401.75;171945;28;962;-64
2022/08/10 00:22:06;;;;;;;2.60;2.40;;;;;;;17.05;85.07;102397.44;171954;28;1088;-64
2022/08/10 00:22:11;;;;;;;2.60;2.40;;;;;;;17.05;84.92;102401.81;171159;28;1530;-64
2022/08/10 00:22:17;;;;;;;2.50;2.30;;;;;;;17.04;85.15;102398.28;171156;28;915;-65
2022/08/10 00:22:23;;;;;;;2.33;2.20;;;;;;;17.06;84.57;102400.91;171191;28;1480;-65
2022/08/10 00:22:28;;;;;;;2.40;2.23;;;;;;;17.06;84.83;102401.75;171304;28;1108;-64
2022/08/10 00:22:34;;;;;;;2.50;2.30;;;;;;;17.07;84.42;102390.28;171350;28;967;-64
2022/08/10 00:22:40;;;;;;;2.50;2.30;;;;;;;17.07;84.51;102395.56;171289;28;1073;-65
2022/08/10 00:22:46;;;;;;;2.60;2.40;;;;;;;17.08;84.46;102401.69;171217;28;1047;-64
2022/08/10 00:22:51;;;;;;;2.70;2.50;;;;;;;17.08;84.49;102397.25;171327;28;963;-64
2022/08/10 00:22:58;;;;;;;2.70;2.50;;;;;;;17.08;84.81;102401.69;171290;28;899;-65
2022/08/10 00:23:03;;;;;;;2.63;2.42;;;;;;;17.10;84.31;102400.69;171331;28;943;-64
2022/08/10 00:23:09;;;;;;;2.50;2.30;;;;;;;17.10;84.36;102402.47;171299;28;1030;-64
2022/08/10 00:23:14;;;;;;;2.50;2.30;;;;;;;17.10;84.19;102402.47;171124;28;986;-64
2022/08/10 00:23:19;;;;;;;2.72;2.28;;;;;;;17.10;84.56;102400.69;171249;28;1034;-64
2022/08/10 00:23:25;;;;;;;2.83;2.30;;;;;;;17.10;84.30;102399.84;170535;28;972;-64
2022/08/10 00:23:31;;;;;;;3.23;2.30;;;;;;;17.09;84.28;102399.00;170602;29;1093;-64
2022/08/10 00:23:37;;;;;;;3.50;2.40;;;;;;;17.09;84.29;102400.75;170609;29;896;-64
2022/08/10 00:23:42;;;;;;;3.83;2.50;;;;;;;17.06;84.90;102398.25;170595;29;1086;-64
2022/08/10 00:23:48;;;;;;;3.87;2.47;;;;;;;17.02;85.14;102404.56;170637;29;1026;-64
2022/08/10 00:23:53;;;;;;;3.73;2.50;;;;;;;16.96;85.48;102398.66;170615;29;1027;-64
2022/08/10 00:23:59;;;;;;;3.35;2.40;;;;;;;16.95;85.32;102399.59;170650;29;851;-64
2022/08/10 00:24:04;;;;;;;3.60;2.30;;;;;;;16.98;85.07;102396.78;170694;29;860;-64
2022/08/10 00:24:09;;;;;;;3.42;2.25;;;;;;;17.00;85.13;102396.72;170857;28;1078;-64
2022/08/10 00:24:15;;;;;;;3.00;2.20;;;;;;;17.02;84.92;102396.66;171127;28;1034;-64
2022/08/10 00:24:20;;;;;;;3.28;2.17;;;;;;;17.02;84.64;102396.66;171488;28;840;-64
2022/08/10 00:24:26;;;;;;;3.40;2.13;;;;;;;17.04;84.65;102400.09;171957;28;911;-64
2022/08/10 00:24:31;;;;;;;2.83;2.20;;;;;;;17.03;84.98;102393.94;171958;28;1030;-64
2022/08/10 00:24:37;;;;;;;2.88;2.22;;;;;;;17.03;85.15;102401.00;171926;28;1094;-64
2022/08/10 00:24:42;;;;;;;2.87;2.30;;;;;;;17.03;85.00;102393.94;172006;28;848;-64
2022/08/10 00:24:48;;;;;;;3.10;2.40;;;;;;;17.04;84.84;102395.66;171989;28;1027;-64
2022/08/10 00:24:56;;;;;;;2.60;2.40;;;;;;;17.05;84.87;102396.53;171967;28;915;-64
2022/08/10 00:25:02;;;;;;;3.10;2.40;;;;;;;17.06;84.69;102395.63;172007;28;954;-64
2022/08/10 00:25:08;;;;;;;2.96;2.40;;;;;;;17.07;84.42;102400.00;171960;28;946;-64
2022/08/10 00:25:13;;;;;;;2.85;2.40;;;;;;;17.08;84.53;102396.44;172330;28;879;-64
2022/08/10 00:25:19;;;;;;;2.63;2.40;;;;;;;17.08;84.30;102393.78;172608;28;1085;-65
2022/08/10 00:25:24;;;;;;;2.63;2.40;;;;;;;17.10;84.18;102399.84;172682;28;835;-65
2022/08/10 00:25:30;;;;;;;2.50;2.30;;;;;;;17.09;84.22;102399.00;172739;28;776;-64
2022/08/10 00:25:36;;;;;;;2.50;2.30;;;;;;;17.11;84.31;102401.56;172730;28;911;-65
2022/08/10 00:25:41;;;;;;;2.45;2.25;;;;;;;17.11;84.49;102398.94;172693;28;883;-64
2022/08/10 00:25:47;;;;;;;2.30;2.20;;;;;;;17.10;84.34;102399.84;172569;28;986;-64
2022/08/10 00:25:52;;;;;;;2.30;2.20;;;;;;;17.09;84.38;102393.72;172651;28;835;-65
2022/08/10 00:25:58;;;;;;;2.42;2.22;;;;;;;17.07;84.71;102397.34;172622;28;949;-65
2022/08/10 00:26:04;;;;;;;2.50;2.30;;;;;;;17.06;84.27;102396.50;172680;28;1033;-64
2022/08/10 00:26:10;;;;;;;2.64;2.38;;;;;;;17.07;84.33;102400.00;172639;28;1029;-64
2022/08/10 00:26:15;;;;;;;3.00;2.40;;;;;;;17.08;84.53;102396.44;172571;28;867;-65
2022/08/10 00:26:21;;;;;;;3.50;2.50;;;;;;;17.08;84.38;102397.25;172601;28;843;-64
2022/08/10 00:26:26;;;;;;;3.55;2.53;;;;;;;17.10;84.04;102394.56;172625;28;921;-64
2022/08/10 00:26:32;;;;;;;3.87;2.50;;;;;;;17.10;83.93;102397.19;172677;28;866;-65
2022/08/10 00:26:37;;;;;;;3.93;2.50;;;;;;;17.11;84.26;102405.03;172625;28;1141;-65
2022/08/10 00:26:43;;;;;;;3.35;2.50;;;;;;;17.11;83.88;102396.28;172631;28;1196;-65
2022/08/10 00:26:48;;;;;;;3.23;2.50;;;;;;;17.12;84.00;102403.28;172652;28;851;-65
2022/08/10 00:26:53;;;;;;;3.08;2.50;;;;;;;17.11;84.01;102391.84;171817;28;886;-64
2022/08/10 00:26:59;;;;;;;2.80;2.40;;;;;;;17.11;84.22;102401.56;171957;28;1080;-64
2022/08/10 00:27:04;;;;;;;2.70;2.43;;;;;;;17.07;84.52;102394.72;171998;28;907;-65
2022/08/10 00:27:09;;;;;;;2.92;2.42;;;;;;;17.03;85.24;102393.94;171943;28;962;-65
2022/08/10 00:27:15;;;;;;;3.30;2.50;;;;;;;16.98;85.64;102396.78;171816;28;1026;-65
2022/08/10 00:27:20;;;;;;;3.83;2.50;;;;;;;16.95;85.54;102391.69;171874;28;907;-64
2022/08/10 00:27:27;;;;;;;3.80;2.60;;;;;;;16.91;86.08;102392.75;171972;28;840;-65
2022/08/10 00:27:33;;;;;;;3.72;2.62;;;;;;;16.87;86.08;102393.81;171978;28;1073;-65
2022/08/10 00:27:39;;;;;;;3.33;2.58;;;;;;;16.89;85.47;102394.56;171961;28;1025;-64
2022/08/10 00:27:45;;;;;;;3.23;2.50;;;;;;;16.92;85.29;102386.53;172101;28;1010;-64